createdAt,value
2018-09-25T00:00:21.734Z,0
2018-09-25T00:01:02.284Z,0
2018-09-25T00:01:42.857Z,0
2018-09-25T00:02:23.440Z,0
2018-09-25T00:03:04.015Z,0
2018-09-25T00:03:44.573Z,0
2018-09-25T00:04:25.125Z,0
2018-09-25T00:05:05.683Z,0
2018-09-25T00:05:46.247Z,0
2018-09-25T00:06:26.800Z,0
2018-09-25T00:07:07.359Z,0
2018-09-25T00:07:47.927Z,0
2018-09-25T00:08:28.530Z,0
2018-09-25T00:09:09.082Z,0
2018-09-25T00:09:49.634Z,0
2018-09-25T00:10:30.181Z,0
2018-09-25T00:11:10.733Z,0
2018-09-25T00:11:51.310Z,0
2018-09-25T00:12:31.854Z,0
2018-09-25T00:13:12.421Z,0
2018-09-25T00:13:52.971Z,0
2018-09-25T00:14:33.526Z,0
2018-09-25T00:15:14.076Z,0
2018-09-25T00:15:54.629Z,0
2018-09-25T00:16:35.170Z,0
2018-09-25T00:17:15.739Z,0
2018-09-25T00:17:56.292Z,0
2018-09-25T00:18:36.858Z,0
2018-09-25T00:19:17.457Z,0
2018-09-25T00:19:58.033Z,0
2018-09-25T00:20:38.561Z,0
2018-09-25T00:21:19.120Z,0
2018-09-25T00:21:59.672Z,0
2018-09-25T00:22:40.230Z,0
2018-09-25T00:23:20.843Z,0
2018-09-25T00:24:01.410Z,0
2018-09-25T00:24:41.977Z,0
2018-09-25T00:25:22.539Z,0
2018-09-25T00:26:03.093Z,0
2018-09-25T00:26:43.639Z,0
2018-09-25T00:27:24.194Z,0
2018-09-25T00:28:04.749Z,0
2018-09-25T00:28:45.327Z,0
2018-09-25T00:29:25.914Z,0
2018-09-25T00:30:06.480Z,0
2018-09-25T00:30:47.042Z,0
2018-09-25T00:31:27.593Z,0
2018-09-25T00:32:08.166Z,0
2018-09-25T00:32:48.718Z,0
2018-09-25T00:33:29.268Z,0
2018-09-25T00:34:09.818Z,0
2018-09-25T00:34:50.376Z,0
2018-09-25T00:35:30.928Z,0
2018-09-25T00:36:11.484Z,0
2018-09-25T00:36:52.043Z,0
2018-09-25T00:37:32.626Z,0
2018-09-25T00:38:13.175Z,0
2018-09-25T00:38:53.737Z,0
2018-09-25T00:39:34.299Z,0
2018-09-25T00:40:14.849Z,0
2018-09-25T00:40:55.403Z,0
2018-09-25T00:41:35.990Z,0
2018-09-25T00:42:16.561Z,0
2018-09-25T00:42:57.135Z,0
2018-09-25T00:43:37.715Z,0
2018-09-25T00:44:18.287Z,0
2018-09-25T00:44:58.849Z,0
2018-09-25T00:45:39.397Z,0
2018-09-25T00:46:19.948Z,0
2018-09-25T00:47:00.582Z,0
2018-09-25T00:47:41.090Z,0
2018-09-25T00:48:21.653Z,0
2018-09-25T00:49:02.273Z,0
2018-09-25T00:49:42.757Z,0
2018-09-25T00:50:23.320Z,0
2018-09-25T00:51:03.877Z,0
2018-09-25T00:51:44.438Z,0
2018-09-25T00:52:24.985Z,0
2018-09-25T00:53:05.557Z,0
2018-09-25T00:53:46.141Z,0
2018-09-25T00:54:26.700Z,0
2018-09-25T00:55:07.266Z,0
2018-09-25T00:55:47.869Z,0
2018-09-25T00:56:28.456Z,0
2018-09-25T00:57:09.030Z,0
2018-09-25T00:57:49.609Z,0
2018-09-25T00:58:30.164Z,0
2018-09-25T00:59:10.728Z,0
2018-09-25T00:59:51.305Z,0
2018-09-25T01:00:31.855Z,0
2018-09-25T01:01:12.432Z,0
2018-09-25T01:01:53.038Z,0
2018-09-25T01:02:33.560Z,0
2018-09-25T01:03:14.113Z,0
2018-09-25T01:03:54.680Z,0
2018-09-25T01:04:35.225Z,0
2018-09-25T01:05:15.782Z,0
2018-09-25T01:05:56.336Z,0
2018-09-25T01:06:36.882Z,0
2018-09-25T01:07:17.453Z,0
2018-09-25T01:07:58.006Z,0
2018-09-25T01:08:38.574Z,0
2018-09-25T01:09:19.123Z,0
2018-09-25T01:09:59.688Z,0
2018-09-25T01:10:40.242Z,0
2018-09-25T01:11:20.799Z,0
2018-09-25T01:12:01.352Z,0
2018-09-25T01:12:41.903Z,0
2018-09-25T01:13:22.468Z,0
2018-09-25T01:14:03.020Z,0
2018-09-25T01:14:43.621Z,0
2018-09-25T01:15:24.179Z,0
2018-09-25T01:16:04.729Z,0
2018-09-25T01:16:45.284Z,0
2018-09-25T01:17:25.861Z,0
2018-09-25T01:18:06.442Z,0
2018-09-25T01:18:46.999Z,0
2018-09-25T01:19:27.543Z,0
2018-09-25T01:20:08.097Z,0
2018-09-25T01:20:48.656Z,0
2018-09-25T01:21:29.229Z,0
2018-09-25T01:22:09.794Z,0
2018-09-25T01:22:50.370Z,0
2018-09-25T01:23:30.939Z,0
2018-09-25T01:24:11.491Z,0
2018-09-25T01:24:52.051Z,0
2018-09-25T01:25:32.602Z,0
2018-09-25T01:26:13.166Z,0
2018-09-25T01:26:53.731Z,0
2018-09-25T01:27:34.291Z,0
2018-09-25T01:28:14.852Z,0
2018-09-25T01:28:55.406Z,0
2018-09-25T01:29:35.958Z,0
2018-09-25T01:30:16.521Z,0
2018-09-25T01:30:57.072Z,0
2018-09-25T01:31:37.639Z,0
2018-09-25T01:32:18.204Z,0
2018-09-25T01:32:58.758Z,0
2018-09-25T01:33:39.331Z,0
2018-09-25T01:34:19.918Z,0
2018-09-25T01:35:00.490Z,0
2018-09-25T01:35:41.046Z,0
2018-09-25T01:36:21.595Z,0
2018-09-25T01:37:02.176Z,0
2018-09-25T01:37:42.735Z,0
2018-09-25T01:38:23.293Z,0
2018-09-25T01:39:03.851Z,0
2018-09-25T01:39:44.415Z,0
2018-09-25T01:40:24.978Z,0
2018-09-25T01:41:05.539Z,0
2018-09-25T01:41:46.097Z,0
2018-09-25T01:42:26.643Z,0
2018-09-25T01:43:07.203Z,0
2018-09-25T01:43:47.763Z,0
2018-09-25T01:44:28.332Z,0
2018-09-25T01:45:08.879Z,0
2018-09-25T01:45:49.452Z,0
2018-09-25T01:46:30.020Z,0
2018-09-25T01:47:10.580Z,0
2018-09-25T01:47:51.144Z,0
2018-09-25T01:48:31.690Z,0
2018-09-25T01:49:12.246Z,0
2018-09-25T01:49:52.804Z,0
2018-09-25T01:50:33.364Z,0
2018-09-25T01:51:13.913Z,0
2018-09-25T01:51:54.473Z,0
2018-09-25T01:52:35.024Z,0
2018-09-25T01:53:15.593Z,0
2018-09-25T01:53:56.147Z,0
2018-09-25T01:54:36.708Z,0
2018-09-25T01:55:17.267Z,0
2018-09-25T01:55:57.841Z,0
2018-09-25T01:56:38.405Z,0
2018-09-25T01:57:18.955Z,0
2018-09-25T01:57:59.512Z,0
2018-09-25T01:58:40.077Z,0
2018-09-25T01:59:20.642Z,0
2018-09-25T02:00:01.193Z,0
2018-09-25T02:00:41.755Z,0
2018-09-25T02:01:22.336Z,0
2018-09-25T02:02:02.899Z,0
2018-09-25T02:02:43.476Z,0
2018-09-25T02:03:24.070Z,0
2018-09-25T02:04:04.614Z,0
2018-09-25T02:04:45.212Z,0
2018-09-25T02:05:25.777Z,0
2018-09-25T02:06:06.362Z,0
2018-09-25T02:06:46.929Z,0
2018-09-25T02:07:27.478Z,0
2018-09-25T02:08:08.097Z,0
2018-09-25T02:08:48.651Z,0
2018-09-25T02:09:29.228Z,0
2018-09-25T02:10:09.802Z,0
2018-09-25T02:10:50.365Z,0
2018-09-25T02:11:30.913Z,0
2018-09-25T02:12:11.481Z,0
2018-09-25T02:12:52.046Z,0
2018-09-25T02:13:32.637Z,0
2018-09-25T02:14:13.207Z,0
2018-09-25T02:14:53.782Z,0
2018-09-25T02:15:34.313Z,0
2018-09-25T02:16:14.885Z,0
2018-09-25T02:16:55.438Z,0
2018-09-25T02:17:35.992Z,0
2018-09-25T02:18:16.535Z,0
2018-09-25T02:18:57.094Z,0
2018-09-25T02:19:37.666Z,0
2018-09-25T02:20:18.217Z,0
2018-09-25T02:20:58.770Z,0
2018-09-25T02:21:39.318Z,0
2018-09-25T02:22:19.896Z,0
2018-09-25T02:23:00.447Z,0
2018-09-25T02:23:41.012Z,0
2018-09-25T02:24:21.571Z,0
2018-09-25T02:25:02.131Z,0
2018-09-25T02:25:42.682Z,0
2018-09-25T02:26:23.245Z,0
2018-09-25T02:27:03.800Z,0
2018-09-25T02:27:44.354Z,0
2018-09-25T02:28:24.913Z,0
2018-09-25T02:29:05.472Z,0
2018-09-25T02:29:46.047Z,0
2018-09-25T02:30:26.595Z,0
2018-09-25T02:31:07.151Z,0
2018-09-25T02:31:47.729Z,0
2018-09-25T02:32:28.293Z,0
2018-09-25T02:33:08.860Z,0
2018-09-25T02:33:49.425Z,0
2018-09-25T02:34:30.008Z,0
2018-09-25T02:35:10.575Z,0
2018-09-25T02:35:51.232Z,0
2018-09-25T02:36:31.784Z,0
2018-09-25T02:37:12.380Z,0
2018-09-25T02:37:52.936Z,0
2018-09-25T02:38:33.493Z,0
2018-09-25T02:39:14.058Z,0
2018-09-25T02:39:54.623Z,0
2018-09-25T02:40:35.169Z,0
2018-09-25T02:41:15.720Z,0
2018-09-25T02:41:56.275Z,0
2018-09-25T02:42:36.824Z,0
2018-09-25T02:43:17.373Z,0
2018-09-25T02:43:57.931Z,0
2018-09-25T02:44:38.492Z,0
2018-09-25T02:45:19.085Z,0
2018-09-25T02:45:59.645Z,0
2018-09-25T02:46:40.206Z,0
2018-09-25T02:47:20.774Z,0
2018-09-25T02:48:01.347Z,0
2018-09-25T02:48:41.955Z,0
2018-09-25T02:49:22.516Z,0
2018-09-25T02:50:03.094Z,0
2018-09-25T02:50:43.653Z,0
2018-09-25T02:51:24.251Z,0
2018-09-25T02:52:04.823Z,0
2018-09-25T02:52:45.384Z,0
2018-09-25T02:53:25.991Z,0
2018-09-25T02:54:06.533Z,0
2018-09-25T02:54:47.104Z,0
2018-09-25T02:55:27.693Z,0
2018-09-25T02:56:08.242Z,0
2018-09-25T02:56:48.792Z,0
2018-09-25T02:57:29.363Z,0
2018-09-25T02:58:09.909Z,0
2018-09-25T02:58:50.476Z,0
2018-09-25T02:59:31.062Z,0
2018-09-25T03:00:11.632Z,0
2018-09-25T03:00:52.183Z,0
2018-09-25T03:01:32.738Z,0
2018-09-25T03:02:13.309Z,0
2018-09-25T03:02:53.875Z,0
2018-09-25T03:03:34.446Z,0
2018-09-25T03:04:15.022Z,0
2018-09-25T03:04:55.595Z,0
2018-09-25T03:05:36.150Z,0
2018-09-25T03:06:16.720Z,0
2018-09-25T03:06:57.278Z,0
2018-09-25T03:07:37.833Z,0
2018-09-25T03:08:18.385Z,0
2018-09-25T03:08:58.938Z,0
2018-09-25T03:09:39.590Z,0
2018-09-25T03:10:20.162Z,0
2018-09-25T03:11:00.712Z,0
2018-09-25T03:11:41.318Z,0
2018-09-25T03:12:21.848Z,0
2018-09-25T03:13:02.397Z,0
2018-09-25T03:13:42.952Z,0
2018-09-25T03:14:23.511Z,0
2018-09-25T03:15:04.082Z,0
2018-09-25T03:15:44.667Z,0
2018-09-25T03:16:25.226Z,0
2018-09-25T03:17:05.789Z,0
2018-09-25T03:17:46.369Z,0
2018-09-25T03:18:26.927Z,0
2018-09-25T03:19:07.497Z,0
2018-09-25T03:19:48.040Z,0
2018-09-25T03:20:28.598Z,0
2018-09-25T03:21:09.146Z,0
2018-09-25T03:21:49.703Z,0
2018-09-25T03:22:30.308Z,0
2018-09-25T03:23:10.830Z,0
2018-09-25T03:23:51.494Z,0
2018-09-25T03:24:31.978Z,0
2018-09-25T03:25:12.561Z,0
2018-09-25T03:25:53.107Z,0
2018-09-25T03:26:33.652Z,0
2018-09-25T03:27:14.205Z,0
2018-09-25T03:27:54.773Z,0
2018-09-25T03:28:35.336Z,0
2018-09-25T03:29:15.935Z,0
2018-09-25T03:29:56.504Z,0
2018-09-25T03:30:37.075Z,0
2018-09-25T03:31:17.656Z,0
2018-09-25T03:31:58.221Z,0
2018-09-25T03:32:38.784Z,0
2018-09-25T03:33:19.342Z,0
2018-09-25T03:33:59.889Z,0
2018-09-25T03:34:40.460Z,0
2018-09-25T03:35:21.020Z,0
2018-09-25T03:36:01.611Z,0
2018-09-25T03:36:42.182Z,0
2018-09-25T03:37:22.736Z,0
2018-09-25T03:38:03.280Z,0
2018-09-25T03:38:43.860Z,0
2018-09-25T03:39:24.434Z,0
2018-09-25T03:40:05.019Z,0
2018-09-25T03:40:45.603Z,0
2018-09-25T03:41:26.162Z,0
2018-09-25T03:42:06.727Z,0
2018-09-25T03:42:47.279Z,0
2018-09-25T03:43:27.859Z,0
2018-09-25T03:44:08.454Z,0
2018-09-25T03:44:49.002Z,0
2018-09-25T03:45:29.563Z,0
2018-09-25T03:46:10.114Z,0
2018-09-25T03:46:50.687Z,0
2018-09-25T03:47:31.265Z,0
2018-09-25T03:48:11.835Z,0
2018-09-25T03:48:52.390Z,0
2018-09-25T03:49:32.970Z,0
2018-09-25T03:50:13.541Z,0
2018-09-25T03:50:54.105Z,0
2018-09-25T03:51:34.661Z,0
2018-09-25T03:52:15.240Z,0
2018-09-25T03:52:55.803Z,0
2018-09-25T03:53:36.361Z,0
2018-09-25T03:54:16.923Z,0
2018-09-25T03:54:57.528Z,0
2018-09-25T03:55:38.137Z,0
2018-09-25T03:56:18.676Z,0
2018-09-25T03:56:59.244Z,0
2018-09-25T03:57:39.810Z,0
2018-09-25T03:58:20.394Z,0
2018-09-25T03:59:00.955Z,0
2018-09-25T03:59:41.629Z,0
2018-09-25T04:00:22.069Z,0
2018-09-25T04:01:02.620Z,0
2018-09-25T04:01:43.191Z,0
2018-09-25T04:02:23.773Z,0
2018-09-25T04:03:04.316Z,0
2018-09-25T04:03:44.874Z,0
2018-09-25T04:04:25.425Z,0
2018-09-25T04:05:06.228Z,0
2018-09-25T04:05:46.774Z,0
2018-09-25T04:06:27.351Z,0
2018-09-25T04:07:07.947Z,0
2018-09-25T04:07:48.492Z,0
2018-09-25T04:08:29.037Z,0
2018-09-25T04:09:09.580Z,0
2018-09-25T04:09:50.160Z,0
2018-09-25T04:10:30.710Z,0
2018-09-25T04:11:11.300Z,0
2018-09-25T04:11:51.863Z,0
2018-09-25T04:12:32.425Z,0
2018-09-25T04:13:12.975Z,0
2018-09-25T04:13:53.535Z,0
2018-09-25T04:14:34.096Z,0
2018-09-25T04:15:14.643Z,0
2018-09-25T04:15:55.237Z,0
2018-09-25T04:16:35.786Z,0
2018-09-25T04:17:16.377Z,0
2018-09-25T04:17:56.926Z,0
2018-09-25T04:18:37.504Z,0
2018-09-25T04:19:18.085Z,0
2018-09-25T04:19:58.642Z,0
2018-09-25T04:20:39.226Z,0
2018-09-25T04:21:19.799Z,0
2018-09-25T04:22:00.378Z,0
2018-09-25T04:22:40.937Z,0
2018-09-25T04:23:21.489Z,0
2018-09-25T04:24:02.044Z,0
2018-09-25T04:24:42.633Z,0
2018-09-25T04:25:23.189Z,0
2018-09-25T04:26:03.744Z,0
2018-09-25T04:26:44.292Z,0
2018-09-25T04:27:24.844Z,0
2018-09-25T04:28:05.410Z,0
2018-09-25T04:28:45.980Z,0
2018-09-25T04:29:26.559Z,0
2018-09-25T04:30:07.116Z,0
2018-09-25T04:30:47.677Z,0
2018-09-25T04:31:28.243Z,0
2018-09-25T04:32:08.804Z,0
2018-09-25T04:32:49.376Z,0
2018-09-25T04:33:29.928Z,0
2018-09-25T04:34:10.513Z,0
2018-09-25T04:34:51.074Z,0
2018-09-25T04:35:31.642Z,0
2018-09-25T04:36:12.192Z,0
2018-09-25T04:36:52.761Z,0
2018-09-25T04:37:33.329Z,0
2018-09-25T04:38:13.873Z,0
2018-09-25T04:38:54.432Z,0
2018-09-25T04:39:34.970Z,0
2018-09-25T04:40:15.531Z,0
2018-09-25T04:40:56.112Z,0
2018-09-25T04:41:36.689Z,0
2018-09-25T04:42:17.247Z,0
2018-09-25T04:42:57.839Z,0
2018-09-25T04:43:38.385Z,0
2018-09-25T04:44:18.997Z,0
2018-09-25T04:44:59.560Z,0
2018-09-25T04:45:40.173Z,0
2018-09-25T04:46:20.787Z,0
2018-09-25T04:47:01.478Z,0
2018-09-25T04:47:42.038Z,0
2018-09-25T04:48:22.526Z,0
2018-09-25T04:49:03.101Z,0
2018-09-25T04:49:43.655Z,0
2018-09-25T04:50:24.219Z,0
2018-09-25T04:51:04.795Z,0
2018-09-25T04:51:45.362Z,0
2018-09-25T04:52:25.931Z,0
2018-09-25T04:53:06.627Z,0
2018-09-25T04:53:47.184Z,0
2018-09-25T04:54:27.748Z,0
2018-09-25T04:55:08.311Z,0
2018-09-25T04:55:48.858Z,0
2018-09-25T04:56:29.400Z,0
2018-09-25T04:57:10.032Z,0
2018-09-25T04:57:50.571Z,5
2018-09-25T04:58:31.631Z,5
2018-09-25T04:59:12.499Z,5
2018-09-25T04:59:53.060Z,5
2018-09-25T05:00:33.629Z,5
2018-09-25T05:01:14.303Z,5
2018-09-25T05:01:55.805Z,5
2018-09-25T05:02:36.583Z,5
2018-09-25T05:03:17.406Z,5
2018-09-25T05:03:58.019Z,5
2018-09-25T05:04:38.590Z,5
2018-09-25T05:05:19.155Z,5
2018-09-25T05:05:59.721Z,5
2018-09-25T05:06:40.301Z,10
2018-09-25T05:07:20.934Z,10
2018-09-25T05:08:01.430Z,10
2018-09-25T05:08:41.997Z,10
2018-09-25T05:09:22.559Z,10
2018-09-25T05:10:03.129Z,10
2018-09-25T05:10:43.703Z,10
2018-09-25T05:11:24.257Z,10
2018-09-25T05:12:04.820Z,10
2018-09-25T05:12:45.380Z,10
2018-09-25T05:13:25.963Z,10
2018-09-25T05:14:09.401Z,15
2018-09-25T05:14:49.954Z,15
2018-09-25T05:15:30.524Z,15
2018-09-25T05:16:11.081Z,15
2018-09-25T05:16:51.667Z,15
2018-09-25T05:17:32.237Z,15
2018-09-25T05:18:17.106Z,15
2018-09-25T05:18:57.580Z,15
2018-09-25T05:19:38.145Z,15
2018-09-25T05:20:18.727Z,15
2018-09-25T05:20:59.282Z,20
2018-09-25T05:21:39.843Z,20
2018-09-25T05:22:20.392Z,20
2018-09-25T05:23:00.967Z,20
2018-09-25T05:23:41.519Z,20
2018-09-25T05:24:22.092Z,20
2018-09-25T05:25:02.655Z,20
2018-09-25T05:25:43.232Z,20
2018-09-25T05:26:23.799Z,20
2018-09-25T05:27:04.362Z,20
2018-09-25T05:27:44.923Z,25
2018-09-25T05:28:25.479Z,25
2018-09-25T05:29:06.022Z,25
2018-09-25T05:29:46.578Z,25
2018-09-25T05:30:27.137Z,25
2018-09-25T05:31:07.700Z,25
2018-09-25T05:31:48.255Z,25
2018-09-25T05:32:28.818Z,25
2018-09-25T05:33:09.362Z,25
2018-09-25T05:33:49.936Z,25
2018-09-25T05:34:30.485Z,25
2018-09-25T05:35:11.045Z,30
2018-09-25T05:35:51.619Z,30
2018-09-25T05:36:32.171Z,30
2018-09-25T05:37:12.822Z,30
2018-09-25T05:37:53.390Z,30
2018-09-25T05:38:33.969Z,30
2018-09-25T05:39:14.543Z,30
2018-09-25T05:39:55.106Z,30
2018-09-25T05:40:35.675Z,30
2018-09-25T05:41:16.248Z,30
2018-09-25T05:41:56.809Z,35
2018-09-25T05:42:37.381Z,35
2018-09-25T05:43:17.935Z,35
2018-09-25T05:43:58.511Z,35
2018-09-25T05:44:39.064Z,35
2018-09-25T05:45:19.781Z,35
2018-09-25T05:46:00.696Z,35
2018-09-25T05:46:41.313Z,35
2018-09-25T05:47:21.900Z,35
2018-09-25T05:48:02.523Z,35
2018-09-25T05:48:43.236Z,40
2018-09-25T05:49:23.646Z,40
2018-09-25T05:50:04.218Z,40
2018-09-25T05:50:44.791Z,40
2018-09-25T05:51:25.367Z,40
2018-09-25T05:52:05.923Z,40
2018-09-25T05:52:46.504Z,40
2018-09-25T05:53:27.068Z,40
2018-09-25T05:54:07.640Z,40
2018-09-25T05:54:48.212Z,40
2018-09-25T05:55:28.793Z,45
2018-09-25T05:56:09.325Z,45
2018-09-25T05:56:49.877Z,45
2018-09-25T05:57:30.483Z,45
2018-09-25T05:58:11.041Z,45
2018-09-25T05:58:51.605Z,45
2018-09-25T05:59:32.200Z,45
2018-09-25T06:00:12.757Z,45
2018-09-25T06:00:53.346Z,45
2018-09-25T06:01:33.881Z,45
2018-09-25T06:02:14.442Z,45
2018-09-25T06:02:55.017Z,45
2018-09-25T06:03:35.578Z,50
2018-09-25T06:04:16.135Z,50
2018-09-25T06:04:57.297Z,50
2018-09-25T06:05:37.881Z,50
2018-09-25T06:06:19.443Z,50
2018-09-25T06:06:59.501Z,50
2018-09-25T06:07:40.148Z,50
2018-09-25T06:08:20.845Z,50
2018-09-25T06:09:01.414Z,50
2018-09-25T06:09:41.988Z,55
2018-09-25T06:10:22.555Z,55
2018-09-25T06:11:03.168Z,55
2018-09-25T06:11:43.788Z,55
2018-09-25T06:12:24.340Z,55
2018-09-25T06:13:04.915Z,55
2018-09-25T06:13:45.537Z,55
2018-09-25T06:14:26.041Z,55
2018-09-25T06:15:06.613Z,55
2018-09-25T06:15:47.232Z,55
2018-09-25T06:16:28.090Z,55
2018-09-25T06:17:08.692Z,55
2018-09-25T06:17:49.256Z,60
2018-09-25T06:18:29.835Z,60
2018-09-25T06:19:10.492Z,60
2018-09-25T06:19:51.259Z,60
2018-09-25T06:20:31.821Z,60
2018-09-25T06:21:13.650Z,60
2018-09-25T06:21:54.202Z,60
2018-09-25T06:22:34.806Z,60
2018-09-25T06:23:15.373Z,60
2018-09-25T06:23:55.942Z,60
2018-09-25T06:24:36.506Z,60
2018-09-25T06:25:19.401Z,65
2018-09-25T06:25:59.984Z,65
2018-09-25T06:26:40.595Z,65
2018-09-25T06:27:21.413Z,65
2018-09-25T06:28:01.989Z,65
2018-09-25T06:28:43.133Z,65
2018-09-25T06:29:23.861Z,65
2018-09-25T06:30:04.434Z,65
2018-09-25T06:30:45.274Z,65
2018-09-25T06:31:25.837Z,65
2018-09-25T06:32:06.591Z,65
2018-09-25T06:32:47.208Z,65
2018-09-25T06:33:27.772Z,70
2018-09-25T06:34:08.392Z,70
2018-09-25T06:34:49.002Z,70
2018-09-25T06:35:29.593Z,70
2018-09-25T06:36:10.140Z,70
2018-09-25T06:36:50.700Z,70
2018-09-25T06:37:31.254Z,70
2018-09-25T06:38:11.822Z,70
2018-09-25T06:38:52.390Z,70
2018-09-25T06:39:32.977Z,70
2018-09-25T06:40:13.530Z,70
2018-09-25T06:40:54.132Z,70
2018-09-25T06:41:34.694Z,70
2018-09-25T06:42:15.250Z,75
2018-09-25T06:42:56.694Z,75
2018-09-25T06:43:37.395Z,75
2018-09-25T06:44:17.958Z,75
2018-09-25T06:45:00.273Z,75
2018-09-25T06:45:40.854Z,75
2018-09-25T06:46:21.565Z,75
2018-09-25T06:47:02.137Z,75
2018-09-25T06:47:43.865Z,75
2018-09-25T06:48:24.438Z,75
2018-09-25T06:49:05.010Z,75
2018-09-25T06:49:45.762Z,75
2018-09-25T06:50:26.650Z,75
2018-09-25T06:51:07.475Z,75
2018-09-25T06:51:47.981Z,75
2018-09-25T06:52:28.542Z,75
2018-09-25T06:53:09.111Z,75
2018-09-25T06:53:49.660Z,75
2018-09-25T06:54:30.322Z,75
2018-09-25T06:55:10.901Z,75
2018-09-25T06:55:51.542Z,80
2018-09-25T06:56:32.097Z,80
2018-09-25T06:57:13.139Z,80
2018-09-25T06:57:53.932Z,80
2018-09-25T06:58:34.488Z,80
2018-09-25T06:59:15.096Z,80
2018-09-25T06:59:55.666Z,80
2018-09-25T07:00:36.267Z,80
2018-09-25T07:01:16.789Z,80
2018-09-25T07:01:57.372Z,85
2018-09-25T07:02:37.952Z,85
2018-09-25T07:03:18.487Z,90
2018-09-25T07:03:59.041Z,90
2018-09-25T07:04:39.588Z,90
2018-09-25T07:05:20.144Z,90
2018-09-25T07:06:00.709Z,90
2018-09-25T07:06:41.260Z,90
2018-09-25T07:07:21.976Z,90
2018-09-25T07:08:02.546Z,100
2018-09-25T07:08:43.093Z,100
2018-09-25T07:09:23.639Z,110
2018-09-25T07:10:04.352Z,160
2018-09-25T07:10:44.930Z,175
2018-09-25T07:11:25.311Z,195
2018-09-25T07:12:05.865Z,160
2018-09-25T07:12:46.430Z,135
2018-09-25T07:13:26.988Z,150
2018-09-25T07:14:07.529Z,165
2018-09-25T07:14:48.078Z,155
2018-09-25T07:15:28.626Z,145
2018-09-25T07:16:09.189Z,150
2018-09-25T07:16:49.760Z,140
2018-09-25T07:17:30.415Z,150
2018-09-25T07:18:10.895Z,145
2018-09-25T07:18:51.454Z,145
2018-09-25T07:19:32.019Z,155
2018-09-25T07:20:12.605Z,255
2018-09-25T07:20:53.212Z,270
2018-09-25T07:21:33.806Z,290
2018-09-25T07:22:14.454Z,200
2018-09-25T07:22:55.256Z,250
2018-09-25T07:23:35.877Z,480
2018-09-25T07:24:16.431Z,765
2018-09-25T07:24:57.104Z,1145
2018-09-25T07:25:37.590Z,1490
2018-09-25T07:26:18.148Z,1825
2018-09-25T07:26:58.711Z,1830
2018-09-25T07:27:39.265Z,1975
2018-09-25T07:28:19.822Z,2020
2018-09-25T07:29:00.374Z,2060
2018-09-25T07:29:40.941Z,2120
2018-09-25T07:30:21.500Z,2135
2018-09-25T07:31:02.106Z,2085
2018-09-25T07:31:42.631Z,2060
2018-09-25T07:32:23.199Z,2070
2018-09-25T07:33:03.764Z,2095
2018-09-25T07:33:44.332Z,2115
2018-09-25T07:34:24.900Z,2150
2018-09-25T07:35:05.469Z,2180
2018-09-25T07:35:46.024Z,2150
2018-09-25T07:36:26.592Z,2080
2018-09-25T07:37:07.153Z,2030
2018-09-25T07:37:47.724Z,2080
2018-09-25T07:38:28.279Z,2110
2018-09-25T07:39:08.855Z,2055
2018-09-25T07:39:49.496Z,2060
2018-09-25T07:40:29.999Z,2025
2018-09-25T07:41:10.589Z,2010
2018-09-25T07:41:51.171Z,1990
2018-09-25T07:42:31.712Z,2000
2018-09-25T07:43:12.292Z,2070
2018-09-25T07:43:52.854Z,2100
2018-09-25T07:44:33.417Z,2140
2018-09-25T07:45:13.991Z,2180
2018-09-25T07:45:54.553Z,2150
2018-09-25T07:46:35.121Z,2120
2018-09-25T07:47:15.684Z,2030
2018-09-25T07:47:56.253Z,1990
2018-09-25T07:48:36.824Z,2045
2018-09-25T07:49:20.347Z,2035
2018-09-25T07:50:00.912Z,2030
2018-09-25T07:50:41.472Z,2050
2018-09-25T07:51:22.038Z,2075
2018-09-25T07:52:02.600Z,2105
2018-09-25T07:52:43.156Z,2155
2018-09-25T07:53:23.730Z,2160
2018-09-25T07:54:04.312Z,2170
2018-09-25T07:54:44.870Z,2160
2018-09-25T07:55:25.495Z,2050
2018-09-25T07:56:05.994Z,1970
2018-09-25T07:56:46.550Z,2055
2018-09-25T07:57:27.147Z,2205
2018-09-25T07:58:07.752Z,2150
2018-09-25T07:58:48.337Z,2060
2018-09-25T07:59:28.904Z,2020
2018-09-25T08:00:09.468Z,2135
2018-09-25T08:00:50.034Z,2105
2018-09-25T08:01:30.634Z,2105
2018-09-25T08:02:11.186Z,2065
2018-09-25T08:02:51.764Z,2050
2018-09-25T08:03:32.436Z,2065
2018-09-25T08:04:12.935Z,2040
2018-09-25T08:04:53.535Z,2010
2018-09-25T08:05:34.116Z,2020
2018-09-25T08:06:14.824Z,1990
2018-09-25T08:06:55.397Z,1975
2018-09-25T08:07:35.976Z,2000
2018-09-25T08:08:16.542Z,1970
2018-09-25T08:08:57.181Z,1890
2018-09-25T08:09:37.986Z,1880
2018-09-25T08:10:18.582Z,1930
2018-09-25T08:10:59.173Z,1980
2018-09-25T08:11:39.755Z,1970
2018-09-25T08:12:20.317Z,1915
2018-09-25T08:13:00.902Z,1910
2018-09-25T08:13:41.462Z,1960
2018-09-25T08:14:22.041Z,1960
2018-09-25T08:15:02.603Z,1910
2018-09-25T08:15:43.181Z,1900
2018-09-25T08:16:23.787Z,1885
2018-09-25T08:17:04.367Z,1650
2018-09-25T08:17:44.938Z,1150
2018-09-25T08:18:25.502Z,695
2018-09-25T08:19:06.077Z,510
2018-09-25T08:19:46.663Z,480
2018-09-25T08:20:27.228Z,465
2018-09-25T08:21:07.801Z,460
2018-09-25T08:21:48.402Z,440
2018-09-25T08:22:28.976Z,440
2018-09-25T08:23:09.543Z,425
2018-09-25T08:23:50.110Z,415
2018-09-25T08:24:30.680Z,405
2018-09-25T08:25:11.309Z,395
2018-09-25T08:25:51.907Z,385
2018-09-25T08:26:32.476Z,375
2018-09-25T08:27:13.040Z,365
2018-09-25T08:27:53.627Z,360
2018-09-25T08:28:34.208Z,345
2018-09-25T08:29:14.806Z,335
2018-09-25T08:29:55.377Z,325
2018-09-25T08:30:35.951Z,320
2018-09-25T08:31:16.516Z,315
2018-09-25T08:31:57.098Z,305
2018-09-25T08:32:37.662Z,295
2018-09-25T08:33:18.232Z,285
2018-09-25T08:33:58.788Z,280
2018-09-25T08:34:39.385Z,275
2018-09-25T08:35:19.950Z,265
2018-09-25T08:36:00.519Z,260
2018-09-25T08:36:41.080Z,250
2018-09-25T08:37:21.644Z,245
2018-09-25T08:38:02.358Z,235
2018-09-25T08:38:42.983Z,235
2018-09-25T08:39:23.667Z,230
2018-09-25T08:40:04.082Z,225
2018-09-25T08:40:44.646Z,220
2018-09-25T08:41:25.224Z,215
2018-09-25T08:42:05.797Z,210
2018-09-25T08:42:46.374Z,205
2018-09-25T08:43:26.954Z,200
2018-09-25T08:44:07.540Z,195
2018-09-25T08:44:48.095Z,190
2018-09-25T08:45:28.656Z,185
2018-09-25T08:46:09.227Z,185
2018-09-25T08:46:49.847Z,185
2018-09-25T08:47:30.425Z,180
2018-09-25T08:48:11.013Z,180
2018-09-25T08:48:51.580Z,175
2018-09-25T08:49:32.144Z,170
2018-09-25T08:50:12.712Z,170
2018-09-25T08:50:53.301Z,165
2018-09-25T08:51:33.861Z,165
2018-09-25T08:52:14.431Z,160
2018-09-25T08:52:55.003Z,160
2018-09-25T08:53:35.669Z,160
2018-09-25T08:54:16.172Z,150
2018-09-25T08:54:56.726Z,150
2018-09-25T08:55:37.287Z,145
2018-09-25T08:56:17.869Z,145
2018-09-25T08:56:58.462Z,145
2018-09-25T08:57:39.034Z,145
2018-09-25T08:58:19.607Z,140
2018-09-25T08:59:00.157Z,140
2018-09-25T08:59:40.734Z,135
2018-09-25T09:00:21.302Z,140
2018-09-25T09:01:01.911Z,135
2018-09-25T09:01:42.418Z,135
2018-09-25T09:02:22.997Z,135
2018-09-25T09:03:03.562Z,135
2018-09-25T09:03:44.123Z,135
2018-09-25T09:04:24.691Z,135
2018-09-25T09:05:05.271Z,135
2018-09-25T09:05:47.075Z,130
2018-09-25T09:06:27.621Z,125
2018-09-25T09:07:08.193Z,125
2018-09-25T09:07:48.822Z,125
2018-09-25T09:08:29.474Z,125
2018-09-25T09:09:09.938Z,125
2018-09-25T09:09:50.510Z,125
2018-09-25T09:10:31.073Z,130
2018-09-25T09:11:11.638Z,85
2018-09-25T09:11:52.217Z,130
2018-09-25T09:12:32.787Z,130
2018-09-25T09:13:13.351Z,130
2018-09-25T09:13:53.919Z,125
2018-09-25T09:14:34.482Z,115
2018-09-25T09:15:15.068Z,85
2018-09-25T09:15:55.644Z,125
2018-09-25T09:16:36.257Z,120
2018-09-25T09:17:16.820Z,115
2018-09-25T09:17:57.414Z,120
2018-09-25T09:18:37.975Z,130
2018-09-25T09:19:18.538Z,90
2018-09-25T09:19:59.227Z,125
2018-09-25T09:20:39.733Z,135
2018-09-25T09:21:20.300Z,135
2018-09-25T09:22:00.864Z,140
2018-09-25T09:22:41.422Z,95
2018-09-25T09:23:22.025Z,85
2018-09-25T09:24:02.581Z,115
2018-09-25T09:24:43.173Z,95
2018-09-25T09:25:23.720Z,125
2018-09-25T09:26:04.296Z,130
2018-09-25T09:26:44.867Z,135
2018-09-25T09:27:25.432Z,140
2018-09-25T09:28:05.986Z,145
2018-09-25T09:28:46.542Z,140
2018-09-25T09:29:27.112Z,115
2018-09-25T09:30:07.682Z,110
2018-09-25T09:30:48.254Z,105
2018-09-25T09:31:28.827Z,100
2018-09-25T09:32:09.399Z,125
2018-09-25T09:32:49.988Z,130
2018-09-25T09:33:30.567Z,105
2018-09-25T09:34:11.141Z,100
2018-09-25T09:34:51.700Z,90
2018-09-25T09:35:32.254Z,85
2018-09-25T09:36:12.848Z,90
2018-09-25T09:36:53.457Z,90
2018-09-25T09:37:34.019Z,90
2018-09-25T09:38:14.606Z,85
2018-09-25T09:38:55.352Z,80
2018-09-25T09:39:35.936Z,80
2018-09-25T09:40:16.519Z,70
2018-09-25T09:40:57.160Z,75
2018-09-25T09:41:37.913Z,100
2018-09-25T09:42:18.265Z,100
2018-09-25T09:42:58.835Z,100